sensor_id;sensor_type;location;lat;lon;timestamp;pressure;altitude;pressure_sealevel;temperature;humidity
41800;BME280;27468;47.460;19.034;2024-01-10T00:01:45;102108.97;;;-2.94;56.58
41800;BME280;27468;47.460;19.034;2024-01-10T00:04:10;102128.63;;;-2.96;56.51
41800;BME280;27468;47.460;19.034;2024-01-10T00:06:36;102130.44;;;-3.08;57.29
41800;BME280;27468;47.460;19.034;2024-01-10T00:09:01;102103.94;;;-3.19;57.65
41800;BME280;27468;47.460;19.034;2024-01-10T00:11:27;102097.31;;;-3.28;57.35
41800;BME280;27468;47.460;19.034;2024-01-10T00:13:52;102135.59;;;-3.21;57.15
41800;BME280;27468;47.460;19.034;2024-01-10T00:16:18;102133.81;;;-3.22;56.70
41800;BME280;27468;47.460;19.034;2024-01-10T00:18:44;102152.88;;;-3.20;56.77
41800;BME280;27468;47.460;19.034;2024-01-10T00:21:12;102111.00;;;-3.43;56.83
41800;BME280;27468;47.460;19.034;2024-01-10T00:23:37;102146.50;;;-3.25;56.71
41800;BME280;27468;47.460;19.034;2024-01-10T00:26:03;102131.75;;;-3.28;56.29
41800;BME280;27468;47.460;19.034;2024-01-10T00:28:28;102147.69;;;-3.20;56.41
41800;BME280;27468;47.460;19.034;2024-01-10T00:30:54;102136.50;;;-3.21;56.63
41800;BME280;27468;47.460;19.034;2024-01-10T00:33:19;102152.16;;;-3.18;56.91
41800;BME280;27468;47.460;19.034;2024-01-10T00:35:44;102117.00;;;-3.57;57.61
41800;BME280;27468;47.460;19.034;2024-01-10T00:38:10;102156.94;;;-3.37;57.93
41800;BME280;27468;47.460;19.034;2024-01-10T00:40:36;102121.84;;;-3.61;57.97
41800;BME280;27468;47.460;19.034;2024-01-10T00:43:02;102143.56;;;-3.58;58.53
41800;BME280;27468;47.460;19.034;2024-01-10T00:45:27;102148.09;;;-3.41;58.48
41800;BME280;27468;47.460;19.034;2024-01-10T00:47:53;102117.91;;;-3.56;58.48
41800;BME280;27468;47.460;19.034;2024-01-10T00:50:18;102113.94;;;-3.64;58.57
41800;BME280;27468;47.460;19.034;2024-01-10T00:52:44;102105.50;;;-3.62;58.61
41800;BME280;27468;47.460;19.034;2024-01-10T00:55:11;102112.34;;;-3.62;58.78
41800;BME280;27468;47.460;19.034;2024-01-10T00:57:37;102132.88;;;-3.51;58.89
41800;BME280;27468;47.460;19.034;2024-01-10T01:00:09;102145.56;;;-3.54;59.42
41800;BME280;27468;47.460;19.034;2024-01-10T01:02:36;102094.88;;;-3.80;59.49
41800;BME280;27468;47.460;19.034;2024-01-10T01:05:02;102127.50;;;-3.54;59.06
41800;BME280;27468;47.460;19.034;2024-01-10T01:07:27;102139.13;;;-3.47;59.07
41800;BME280;27468;47.460;19.034;2024-01-10T01:09:53;102106.78;;;-3.69;59.34
41800;BME280;27468;47.460;19.034;2024-01-10T01:12:18;102081.00;;;-3.95;59.86
41800;BME280;27468;47.460;19.034;2024-01-10T01:14:44;102145.06;;;-3.61;60.00
41800;BME280;27468;47.460;19.034;2024-01-10T01:17:09;102161.53;;;-3.59;60.25
41800;BME280;27468;47.460;19.034;2024-01-10T01:19:34;102123.94;;;-3.69;60.33
41800;BME280;27468;47.460;19.034;2024-01-10T01:22:00;102162.81;;;-3.53;60.25
41800;BME280;27468;47.460;19.034;2024-01-10T01:24:25;102136.91;;;-3.68;60.07
41800;BME280;27468;47.460;19.034;2024-01-10T01:26:50;102130.56;;;-3.73;60.04
41800;BME280;27468;47.460;19.034;2024-01-10T01:29:16;102120.16;;;-3.74;60.49
41800;BME280;27468;47.460;19.034;2024-01-10T01:31:42;102110.03;;;-3.84;60.54
41800;BME280;27468;47.460;19.034;2024-01-10T01:34:07;102156.38;;;-3.59;61.01
41800;BME280;27468;47.460;19.034;2024-01-10T01:36:32;102167.38;;;-3.62;60.63
41800;BME280;27468;47.460;19.034;2024-01-10T01:38:58;102100.13;;;-4.05;60.70
41800;BME280;27468;47.460;19.034;2024-01-10T01:41:23;102109.63;;;-4.04;60.30
41800;BME280;27468;47.460;19.034;2024-01-10T01:43:48;102131.53;;;-3.97;60.34
41800;BME280;27468;47.460;19.034;2024-01-10T01:46:14;102140.16;;;-3.96;60.99
41800;BME280;27468;47.460;19.034;2024-01-10T01:48:39;102145.41;;;-4.08;61.15
41800;BME280;27468;47.460;19.034;2024-01-10T01:51:07;102092.97;;;-4.22;60.93
41800;BME280;27468;47.460;19.034;2024-01-10T01:53:34;102139.75;;;-3.89;60.45
41800;BME280;27468;47.460;19.034;2024-01-10T01:56:02;102106.88;;;-4.07;60.59
41800;BME280;27468;47.460;19.034;2024-01-10T01:58:30;102122.22;;;-4.08;60.94
41800;BME280;27468;47.460;19.034;2024-01-10T02:00:56;102138.25;;;-3.99;61.03
41800;BME280;27468;47.460;19.034;2024-01-10T02:03:21;102110.22;;;-4.08;61.03
41800;BME280;27468;47.460;19.034;2024-01-10T02:05:47;102138.56;;;-4.08;60.99
41800;BME280;27468;47.460;19.034;2024-01-10T02:08:13;102073.19;;;-4.48;61.76
41800;BME280;27468;47.460;19.034;2024-01-10T02:10:38;102144.78;;;-4.04;61.33
41800;BME280;27468;47.460;19.034;2024-01-10T02:13:05;102094.97;;;-4.18;60.97
41800;BME280;27468;47.460;19.034;2024-01-10T02:15:30;102151.75;;;-3.90;61.07
41800;BME280;27468;47.460;19.034;2024-01-10T02:17:56;102109.72;;;-4.15;61.55
41800;BME280;27468;47.460;19.034;2024-01-10T02:20:21;102048.13;;;-4.50;61.78
41800;BME280;27468;47.460;19.034;2024-01-10T02:22:47;102079.56;;;-4.29;61.83
41800;BME280;27468;47.460;19.034;2024-01-10T02:25:13;102108.84;;;-4.16;61.81
41800;BME280;27468;47.460;19.034;2024-01-10T02:27:40;102113.78;;;-4.19;62.00
41800;BME280;27468;47.460;19.034;2024-01-10T02:30:07;102113.25;;;-4.26;61.88
41800;BME280;27468;47.460;19.034;2024-01-10T02:32:33;102144.41;;;-4.10;61.72
41800;BME280;27468;47.460;19.034;2024-01-10T02:34:59;102136.00;;;-4.08;61.77
41800;BME280;27468;47.460;19.034;2024-01-10T02:37:24;102106.13;;;-4.30;61.61
41800;BME280;27468;47.460;19.034;2024-01-10T02:39:50;102122.09;;;-4.23;61.94
41800;BME280;27468;47.460;19.034;2024-01-10T02:42:16;102098.97;;;-4.35;61.99
41800;BME280;27468;47.460;19.034;2024-01-10T02:44:41;102138.06;;;-4.15;61.54
41800;BME280;27468;47.460;19.034;2024-01-10T02:47:07;102130.81;;;-4.21;61.75
41800;BME280;27468;47.460;19.034;2024-01-10T02:49:33;102091.00;;;-4.51;62.26
41800;BME280;27468;47.460;19.034;2024-01-10T02:51:59;102126.13;;;-4.26;61.86
41800;BME280;27468;47.460;19.034;2024-01-10T02:54:25;102117.47;;;-4.40;61.70
41800;BME280;27468;47.460;19.034;2024-01-10T02:56:50;102105.50;;;-4.40;61.80
41800;BME280;27468;47.460;19.034;2024-01-10T02:59:16;102114.53;;;-4.33;62.01
41800;BME280;27468;47.460;19.034;2024-01-10T03:01:41;102129.81;;;-4.23;61.54
41800;BME280;27468;47.460;19.034;2024-01-10T03:04:07;102134.53;;;-4.29;61.71
41800;BME280;27468;47.460;19.034;2024-01-10T03:06:32;102106.69;;;-4.59;61.72
41800;BME280;27468;47.460;19.034;2024-01-10T03:08:57;102120.41;;;-4.47;61.76
41800;BME280;27468;47.460;19.034;2024-01-10T03:11:22;102125.19;;;-4.40;62.16
41800;BME280;27468;47.460;19.034;2024-01-10T03:13:52;102135.91;;;-4.34;61.90
41800;BME280;27468;47.460;19.034;2024-01-10T03:16:17;102147.22;;;-4.32;61.96
41800;BME280;27468;47.460;19.034;2024-01-10T03:18:43;102112.84;;;-4.57;61.51
41800;BME280;27468;47.460;19.034;2024-01-10T03:21:09;102133.03;;;-4.63;62.04
41800;BME280;27468;47.460;19.034;2024-01-10T03:23:34;102135.78;;;-4.60;62.27
41800;BME280;27468;47.460;19.034;2024-01-10T03:25:59;102137.91;;;-4.55;62.30
41800;BME280;27468;47.460;19.034;2024-01-10T03:28:25;102135.44;;;-4.53;62.27
41800;BME280;27468;47.460;19.034;2024-01-10T03:30:50;102127.72;;;-4.53;62.18
41800;BME280;27468;47.460;19.034;2024-01-10T03:33:16;102137.53;;;-4.48;62.16
41800;BME280;27468;47.460;19.034;2024-01-10T03:35:41;102137.53;;;-4.48;61.95
41800;BME280;27468;47.460;19.034;2024-01-10T03:38:07;102125.34;;;-4.50;61.62
41800;BME280;27468;47.460;19.034;2024-01-10T03:40:32;102086.13;;;-4.84;61.85
41800;BME280;27468;47.460;19.034;2024-01-10T03:42:58;102110.06;;;-4.85;62.73
41800;BME280;27468;47.460;19.034;2024-01-10T03:45:23;102120.84;;;-4.66;62.77
41800;BME280;27468;47.460;19.034;2024-01-10T03:47:49;102125.94;;;-4.54;62.64
41800;BME280;27468;47.460;19.034;2024-01-10T03:50:20;102119.75;;;-4.70;62.95
41800;BME280;27468;47.460;19.034;2024-01-10T03:52:46;102136.19;;;-4.68;62.41
41800;BME280;27468;47.460;19.034;2024-01-10T03:55:12;102132.66;;;-4.81;62.91
41800;BME280;27468;47.460;19.034;2024-01-10T03:57:38;102146.81;;;-4.63;62.84
41800;BME280;27468;47.460;19.034;2024-01-10T04:00:05;102137.78;;;-4.70;62.79
41800;BME280;27468;47.460;19.034;2024-01-10T04:02:31;102117.91;;;-4.84;62.80
41800;BME280;27468;47.460;19.034;2024-01-10T04:04:57;102131.41;;;-4.75;62.91
41800;BME280;27468;47.460;19.034;2024-01-10T04:07:22;102122.59;;;-4.78;62.44
41800;BME280;27468;47.460;19.034;2024-01-10T04:09:48;102106.03;;;-4.82;62.24
41800;BME280;27468;47.460;19.034;2024-01-10T04:12:13;102119.13;;;-4.79;61.86
41800;BME280;27468;47.460;19.034;2024-01-10T04:14:39;102098.09;;;-4.85;61.86
41800;BME280;27468;47.460;19.034;2024-01-10T04:17:04;102119.69;;;-4.83;61.38
41800;BME280;27468;47.460;19.034;2024-01-10T04:19:32;102098.47;;;-4.92;61.36
41800;BME280;27468;47.460;19.034;2024-01-10T04:21:57;102147.59;;;-4.64;61.27
41800;BME280;27468;47.460;19.034;2024-01-10T04:24:22;102088.19;;;-4.92;61.27
41800;BME280;27468;47.460;19.034;2024-01-10T04:26:47;102106.06;;;-4.93;61.23
41800;BME280;27468;47.460;19.034;2024-01-10T04:29:13;102122.84;;;-4.87;61.70
41800;BME280;27468;47.460;19.034;2024-01-10T04:31:38;102096.81;;;-5.03;61.15
41800;BME280;27468;47.460;19.034;2024-01-10T04:34:03;102101.44;;;-5.11;61.02
41800;BME280;27468;47.460;19.034;2024-01-10T04:36:29;102130.47;;;-5.00;60.85
41800;BME280;27468;47.460;19.034;2024-01-10T04:38:54;102147.09;;;-4.83;61.18
41800;BME280;27468;47.460;19.034;2024-01-10T04:41:19;102094.72;;;-5.09;61.42
41800;BME280;27468;47.460;19.034;2024-01-10T04:43:45;102114.94;;;-5.02;61.41
41800;BME280;27468;47.460;19.034;2024-01-10T04:46:10;102146.09;;;-4.85;61.75
41800;BME280;27468;47.460;19.034;2024-01-10T04:48:36;102117.72;;;-4.99;62.04
41800;BME280;27468;47.460;19.034;2024-01-10T04:51:02;102135.94;;;-4.95;62.31
41800;BME280;27468;47.460;19.034;2024-01-10T04:53:27;102142.53;;;-4.87;62.97
41800;BME280;27468;47.460;19.034;2024-01-10T04:55:52;102120.06;;;-5.02;63.32
41800;BME280;27468;47.460;19.034;2024-01-10T04:58:18;102134.94;;;-4.97;63.65
41800;BME280;27468;47.460;19.034;2024-01-10T05:00:43;102149.25;;;-5.01;64.26
41800;BME280;27468;47.460;19.034;2024-01-10T05:03:08;102105.72;;;-5.23;64.29
41800;BME280;27468;47.460;19.034;2024-01-10T05:05:34;102173.75;;;-4.94;63.79
41800;BME280;27468;47.460;19.034;2024-01-10T05:07:59;102179.31;;;-4.88;63.69
41800;BME280;27468;47.460;19.034;2024-01-10T05:10:26;102151.03;;;-5.00;63.87
41800;BME280;27468;47.460;19.034;2024-01-10T05:12:51;102171.06;;;-4.96;63.90
41800;BME280;27468;47.460;19.034;2024-01-10T05:15:17;102118.09;;;-5.17;63.23
41800;BME280;27468;47.460;19.034;2024-01-10T05:17:42;102136.53;;;-5.11;63.26
41800;BME280;27468;47.460;19.034;2024-01-10T05:20:08;102146.25;;;-5.07;63.37
41800;BME280;27468;47.460;19.034;2024-01-10T05:22:34;102167.94;;;-5.04;63.56
41800;BME280;27468;47.460;19.034;2024-01-10T05:25:00;102149.31;;;-5.24;63.61
41800;BME280;27468;47.460;19.034;2024-01-10T05:27:25;102162.56;;;-5.07;63.42
41800;BME280;27468;47.460;19.034;2024-01-10T05:29:50;102119.47;;;-5.22;63.67
41800;BME280;27468;47.460;19.034;2024-01-10T05:32:15;102177.91;;;-5.08;63.82
41800;BME280;27468;47.460;19.034;2024-01-10T05:34:41;102128.88;;;-5.46;64.37
41800;BME280;27468;47.460;19.034;2024-01-10T05:37:07;102096.81;;;-5.51;64.36
41800;BME280;27468;47.460;19.034;2024-01-10T05:39:32;102148.06;;;-5.18;64.39
41800;BME280;27468;47.460;19.034;2024-01-10T05:41:57;102164.84;;;-5.23;64.58
41800;BME280;27468;47.460;19.034;2024-01-10T05:44:23;102121.06;;;-5.36;64.89
41800;BME280;27468;47.460;19.034;2024-01-10T05:46:48;102093.47;;;-5.50;64.74
41800;BME280;27468;47.460;19.034;2024-01-10T05:49:13;102147.53;;;-5.37;64.70
41800;BME280;27468;47.460;19.034;2024-01-10T05:51:38;102169.88;;;-5.24;64.47
41800;BME280;27468;47.460;19.034;2024-01-10T05:54:04;102153.47;;;-5.26;64.17
41800;BME280;27468;47.460;19.034;2024-01-10T05:56:29;102149.53;;;-5.21;64.36
41800;BME280;27468;47.460;19.034;2024-01-10T05:58:54;102167.16;;;-5.14;63.99
41800;BME280;27468;47.460;19.034;2024-01-10T06:01:20;102151.69;;;-5.27;63.97
41800;BME280;27468;47.460;19.034;2024-01-10T06:03:45;102122.41;;;-5.41;63.72
41800;BME280;27468;47.460;19.034;2024-01-10T06:06:11;102161.97;;;-5.27;63.81
41800;BME280;27468;47.460;19.034;2024-01-10T06:08:36;102160.19;;;-5.40;64.77
41800;BME280;27468;47.460;19.034;2024-01-10T06:11:04;102178.91;;;-5.18;64.95
41800;BME280;27468;47.460;19.034;2024-01-10T06:13:34;102193.78;;;-5.14;64.74
41800;BME280;27468;47.460;19.034;2024-01-10T06:15:59;102183.63;;;-5.24;65.00
41800;BME280;27468;47.460;19.034;2024-01-10T06:18:25;102187.00;;;-5.25;65.35
41800;BME280;27468;47.460;19.034;2024-01-10T06:20:50;102152.81;;;-5.47;65.50
41800;BME280;27468;47.460;19.034;2024-01-10T06:23:17;102149.00;;;-5.52;65.34
41800;BME280;27468;47.460;19.034;2024-01-10T06:25:42;102123.53;;;-5.61;65.19
41800;BME280;27468;47.460;19.034;2024-01-10T06:28:07;102164.41;;;-5.41;64.71
41800;BME280;27468;47.460;19.034;2024-01-10T06:30:33;102156.16;;;-5.37;64.92
41800;BME280;27468;47.460;19.034;2024-01-10T06:32:58;102172.25;;;-5.27;64.40
41800;BME280;27468;47.460;19.034;2024-01-10T06:35:24;102175.38;;;-5.32;64.27
41800;BME280;27468;47.460;19.034;2024-01-10T06:37:49;102158.72;;;-5.37;63.44
41800;BME280;27468;47.460;19.034;2024-01-10T06:40:15;102131.00;;;-5.52;63.29
41800;BME280;27468;47.460;19.034;2024-01-10T06:42:40;102160.72;;;-5.33;62.95
41800;BME280;27468;47.460;19.034;2024-01-10T06:45:06;102177.59;;;-5.24;62.30
41800;BME280;27468;47.460;19.034;2024-01-10T06:47:32;102149.78;;;-5.53;63.00
41800;BME280;27468;47.460;19.034;2024-01-10T06:49:59;102189.69;;;-5.23;62.66
41800;BME280;27468;47.460;19.034;2024-01-10T06:52:24;102203.72;;;-5.18;62.96
41800;BME280;27468;47.460;19.034;2024-01-10T06:54:49;102212.56;;;-5.15;62.73
41800;BME280;27468;47.460;19.034;2024-01-10T06:57:14;102162.97;;;-5.37;62.98
41800;BME280;27468;47.460;19.034;2024-01-10T06:59:40;102203.16;;;-5.14;63.06
41800;BME280;27468;47.460;19.034;2024-01-10T07:02:05;102225.41;;;-4.91;62.97
41800;BME280;27468;47.460;19.034;2024-01-10T07:04:30;102217.78;;;-4.90;63.35
41800;BME280;27468;47.460;19.034;2024-01-10T07:07:00;102200.34;;;-4.94;63.29
41800;BME280;27468;47.460;19.034;2024-01-10T07:09:25;102208.28;;;-4.91;63.15
41800;BME280;27468;47.460;19.034;2024-01-10T07:11:51;102220.38;;;-4.90;63.41
41800;BME280;27468;47.460;19.034;2024-01-10T07:14:16;102224.16;;;-4.85;63.06
41800;BME280;27468;47.460;19.034;2024-01-10T07:16:42;102202.69;;;-4.85;62.64
41800;BME280;27468;47.460;19.034;2024-01-10T07:19:09;102170.84;;;-5.11;62.33
41800;BME280;27468;47.460;19.034;2024-01-10T07:21:39;102181.13;;;-5.11;61.91
41800;BME280;27468;47.460;19.034;2024-01-10T07:24:04;102188.19;;;-5.08;61.67
41800;BME280;27468;47.460;19.034;2024-01-10T07:26:30;102194.41;;;-4.93;61.88
41800;BME280;27468;47.460;19.034;2024-01-10T07:28:56;102222.03;;;-4.79;61.55
41800;BME280;27468;47.460;19.034;2024-01-10T07:31:21;102202.22;;;-4.80;61.28
41800;BME280;27468;47.460;19.034;2024-01-10T07:33:46;102189.72;;;-4.87;61.39
41800;BME280;27468;47.460;19.034;2024-01-10T07:36:12;102214.28;;;-4.67;61.45
41800;BME280;27468;47.460;19.034;2024-01-10T07:38:37;102197.63;;;-4.72;61.78
41800;BME280;27468;47.460;19.034;2024-01-10T07:41:02;102216.06;;;-4.66;61.33
41800;BME280;27468;47.460;19.034;2024-01-10T07:43:28;102191.59;;;-4.73;60.99
41800;BME280;27468;47.460;19.034;2024-01-10T07:45:53;102189.69;;;-4.75;61.22
41800;BME280;27468;47.460;19.034;2024-01-10T07:48:19;102159.16;;;-4.82;60.83
41800;BME280;27468;47.460;19.034;2024-01-10T07:50:45;102178.03;;;-4.70;61.28
41800;BME280;27468;47.460;19.034;2024-01-10T07:53:12;102220.66;;;-4.37;60.89
41800;BME280;27468;47.460;19.034;2024-01-10T07:55:38;102212.63;;;-4.42;60.98
41800;BME280;27468;47.460;19.034;2024-01-10T07:58:03;102208.22;;;-4.31;60.76
41800;BME280;27468;47.460;19.034;2024-01-10T08:00:30;102212.53;;;-4.18;60.68
41800;BME280;27468;47.460;19.034;2024-01-10T08:02:56;102222.16;;;-4.16;60.29
41800;BME280;27468;47.460;19.034;2024-01-10T08:05:21;102209.28;;;-4.16;60.25
41800;BME280;27468;47.460;19.034;2024-01-10T08:07:47;102163.44;;;-4.33;60.11
41800;BME280;27468;47.460;19.034;2024-01-10T08:10:13;102198.97;;;-4.03;60.24
41800;BME280;27468;47.460;19.034;2024-01-10T08:12:39;102234.63;;;-3.84;59.93
41800;BME280;27468;47.460;19.034;2024-01-10T08:15:05;102216.59;;;-3.84;59.30
41800;BME280;27468;47.460;19.034;2024-01-10T08:17:31;102153.28;;;-4.18;58.82
41800;BME280;27468;47.460;19.034;2024-01-10T08:19:58;102148.84;;;-4.21;58.67
41800;BME280;27468;47.460;19.034;2024-01-10T08:22:23;102208.97;;;-3.82;58.19
41800;BME280;27468;47.460;19.034;2024-01-10T08:24:48;102198.84;;;-3.79;58.03
41800;BME280;27468;47.460;19.034;2024-01-10T08:27:14;102241.84;;;-3.53;57.94
41800;BME280;27468;47.460;19.034;2024-01-10T08:29:39;102176.44;;;-3.80;57.81
41800;BME280;27468;47.460;19.034;2024-01-10T08:32:04;102189.38;;;-3.67;57.57
41800;BME280;27468;47.460;19.034;2024-01-10T08:34:30;102216.94;;;-3.40;56.98
41800;BME280;27468;47.460;19.034;2024-01-10T08:36:55;102230.34;;;-3.32;56.46
41800;BME280;27468;47.460;19.034;2024-01-10T08:39:21;102215.75;;;-3.32;57.38
41800;BME280;27468;47.460;19.034;2024-01-10T08:41:47;102187.59;;;-3.28;57.80
41800;BME280;27468;47.460;19.034;2024-01-10T08:44:14;102230.16;;;-2.95;57.47
41800;BME280;27468;47.460;19.034;2024-01-10T08:46:39;102236.06;;;-2.83;57.53
41800;BME280;27468;47.460;19.034;2024-01-10T08:49:04;102240.34;;;-2.84;57.01
41800;BME280;27468;47.460;19.034;2024-01-10T08:51:30;102165.47;;;-3.12;57.22
41800;BME280;27468;47.460;19.034;2024-01-10T08:53:56;102233.97;;;-2.76;56.67
41800;BME280;27468;47.460;19.034;2024-01-10T08:56:22;102216.97;;;-2.59;56.37
41800;BME280;27468;47.460;19.034;2024-01-10T08:58:47;102209.81;;;-2.63;55.86
41800;BME280;27468;47.460;19.034;2024-01-10T09:01:13;102188.88;;;-2.68;55.57
41800;BME280;27468;47.460;19.034;2024-01-10T09:03:38;102229.72;;;-2.34;54.22
41800;BME280;27468;47.460;19.034;2024-01-10T09:06:04;102198.44;;;-2.39;53.73
41800;BME280;27468;47.460;19.034;2024-01-10T09:08:30;102185.63;;;-2.22;53.63
41800;BME280;27468;47.460;19.034;2024-01-10T09:10:55;102202.66;;;-2.11;53.86
41800;BME280;27468;47.460;19.034;2024-01-10T09:13:21;102143.44;;;-2.51;54.26
41800;BME280;27468;47.460;19.034;2024-01-10T09:15:46;102193.31;;;-2.09;53.59
41800;BME280;27468;47.460;19.034;2024-01-10T09:18:12;102182.47;;;-2.04;53.54
41800;BME280;27468;47.460;19.034;2024-01-10T09:20:37;102132.63;;;-2.16;52.85
41800;BME280;27468;47.460;19.034;2024-01-10T09:23:03;102147.00;;;-2.06;51.92
41800;BME280;27468;47.460;19.034;2024-01-10T09:25:28;102189.44;;;-1.58;51.54
41800;BME280;27468;47.460;19.034;2024-01-10T09:27:54;102184.09;;;-1.76;50.65
41800;BME280;27468;47.460;19.034;2024-01-10T09:30:20;102152.97;;;-1.92;49.99
41800;BME280;27468;47.460;19.034;2024-01-10T09:32:46;102184.88;;;-1.62;49.28
41800;BME280;27468;47.460;19.034;2024-01-10T09:35:11;102159.47;;;-1.70;49.05
41800;BME280;27468;47.460;19.034;2024-01-10T09:37:38;102158.91;;;-1.49;47.89
41800;BME280;27468;47.460;19.034;2024-01-10T09:40:04;102169.78;;;-1.40;48.33
41800;BME280;27468;47.460;19.034;2024-01-10T09:42:29;102199.75;;;-1.29;47.23
41800;BME280;27468;47.460;19.034;2024-01-10T09:44:57;102197.34;;;-0.95;47.42
41800;BME280;27468;47.460;19.034;2024-01-10T09:47:23;102177.09;;;-1.02;46.69
41800;BME280;27468;47.460;19.034;2024-01-10T09:49:49;102173.66;;;-0.86;45.73
41800;BME280;27468;47.460;19.034;2024-01-10T09:52:28;102156.91;;;-0.93;45.06
41800;BME280;27468;47.460;19.034;2024-01-10T09:54:56;102182.34;;;-0.70;44.11
41800;BME280;27468;47.460;19.034;2024-01-10T09:57:23;102144.06;;;-0.75;43.30
41800;BME280;27468;47.460;19.034;2024-01-10T09:59:49;102144.47;;;-0.68;42.58
41800;BME280;27468;47.460;19.034;2024-01-10T10:02:17;102163.13;;;-0.58;41.32
41800;BME280;27468;47.460;19.034;2024-01-10T10:04:53;102111.66;;;-1.00;40.68
41800;BME280;27468;47.460;19.034;2024-01-10T10:07:19;102140.03;;;-0.70;41.08
41800;BME280;27468;47.460;19.034;2024-01-10T10:09:44;102092.34;;;-0.74;42.05
41800;BME280;27468;47.460;19.034;2024-01-10T10:12:09;102149.88;;;-0.47;41.36
41800;BME280;27468;47.460;19.034;2024-01-10T10:14:35;102131.84;;;-0.29;41.36
41800;BME280;27468;47.460;19.034;2024-01-10T10:17:16;102142.13;;;-0.30;40.61
41800;BME280;27468;47.460;19.034;2024-01-10T10:19:42;102147.28;;;-0.14;41.16
41800;BME280;27468;47.460;19.034;2024-01-10T10:22:08;102154.56;;;-0.07;40.92
41800;BME280;27468;47.460;19.034;2024-01-10T10:24:37;102146.09;;;0.13;40.74
41800;BME280;27468;47.460;19.034;2024-01-10T10:27:08;102140.75;;;0.10;40.61
41800;BME280;27468;47.460;19.034;2024-01-10T10:29:35;102078.28;;;-0.12;40.57
41800;BME280;27468;47.460;19.034;2024-01-10T10:32:01;102080.47;;;-0.20;40.31
41800;BME280;27468;47.460;19.034;2024-01-10T10:34:30;102122.03;;;0.33;40.04
41800;BME280;27468;47.460;19.034;2024-01-10T10:36:57;102115.16;;;0.34;40.42
41800;BME280;27468;47.460;19.034;2024-01-10T10:39:22;102097.13;;;0.37;39.60
41800;BME280;27468;47.460;19.034;2024-01-10T10:41:48;102117.19;;;0.59;39.47
41800;BME280;27468;47.460;19.034;2024-01-10T10:44:19;102080.09;;;0.42;39.42
41800;BME280;27468;47.460;19.034;2024-01-10T10:46:49;102117.69;;;0.50;39.13
41800;BME280;27468;47.460;19.034;2024-01-10T10:49:17;102100.31;;;0.49;39.00
41800;BME280;27468;47.460;19.034;2024-01-10T10:51:43;102090.91;;;0.51;39.43
41800;BME280;27468;47.460;19.034;2024-01-10T10:54:09;102110.53;;;0.82;38.95
41800;BME280;27468;47.460;19.034;2024-01-10T10:56:35;102084.94;;;0.72;38.96
41800;BME280;27468;47.460;19.034;2024-01-10T10:59:02;102105.25;;;0.80;39.77
41800;BME280;27468;47.460;19.034;2024-01-10T11:01:31;102086.41;;;0.84;39.49
41800;BME280;27468;47.460;19.034;2024-01-10T11:03:58;102057.91;;;0.86;39.43
41800;BME280;27468;47.460;19.034;2024-01-10T11:06:25;102087.59;;;0.91;39.56
41800;BME280;27468;47.460;19.034;2024-01-10T11:08:56;102077.47;;;0.97;39.07
41800;BME280;27468;47.460;19.034;2024-01-10T11:12:24;102059.44;;;1.00;39.13
41800;BME280;27468;47.460;19.034;2024-01-10T11:17:26;102079.47;;;1.22;39.44
41800;BME280;27468;47.460;19.034;2024-01-10T11:20:14;102063.06;;;1.42;39.33
41800;BME280;27468;47.460;19.034;2024-01-10T11:25:30;102071.88;;;1.46;39.89
41800;BME280;27468;47.460;19.034;2024-01-10T11:27:55;102058.63;;;1.40;40.56
41800;BME280;27468;47.460;19.034;2024-01-10T11:30:37;102043.84;;;1.39;40.91
41800;BME280;27468;47.460;19.034;2024-01-10T11:33:24;102065.50;;;1.58;41.49
41800;BME280;27468;47.460;19.034;2024-01-10T11:38:47;102047.50;;;1.63;42.33
41800;BME280;27468;47.460;19.034;2024-01-10T11:41:21;102001.56;;;1.43;42.59
41800;BME280;27468;47.460;19.034;2024-01-10T11:46:49;102035.06;;;1.77;42.11
41800;BME280;27468;47.460;19.034;2024-01-10T11:49:17;102041.16;;;1.77;41.68
41800;BME280;27468;47.460;19.034;2024-01-10T11:52:04;102060.72;;;1.88;41.21
41800;BME280;27468;47.460;19.034;2024-01-10T11:57:02;102003.50;;;1.68;41.08
41800;BME280;27468;47.460;19.034;2024-01-10T11:59:27;102033.25;;;1.95;40.50
41800;BME280;27468;47.460;19.034;2024-01-10T12:01:54;102051.06;;;2.07;40.66
41800;BME280;27468;47.460;19.034;2024-01-10T12:04:19;101985.25;;;1.66;40.87
41800;BME280;27468;47.460;19.034;2024-01-10T12:06:45;102022.25;;;2.23;40.47
41800;BME280;27468;47.460;19.034;2024-01-10T12:09:10;102020.72;;;2.28;40.19
41800;BME280;27468;47.460;19.034;2024-01-10T12:11:40;101980.72;;;2.04;40.12
41800;BME280;27468;47.460;19.034;2024-01-10T12:14:08;102023.47;;;2.10;40.21
41800;BME280;27468;47.460;19.034;2024-01-10T12:16:33;101986.75;;;2.03;40.33
41800;BME280;27468;47.460;19.034;2024-01-10T12:18:59;101987.63;;;2.03;40.59
41800;BME280;27468;47.460;19.034;2024-01-10T12:21:24;101956.09;;;1.95;41.00
41800;BME280;27468;47.460;19.034;2024-01-10T12:23:49;101978.59;;;2.16;40.77
41800;BME280;27468;47.460;19.034;2024-01-10T12:26:16;101968.91;;;2.12;40.54
41800;BME280;27468;47.460;19.034;2024-01-10T12:28:56;101962.38;;;2.01;40.28
41800;BME280;27468;47.460;19.034;2024-01-10T12:31:22;101953.81;;;2.03;40.35
41800;BME280;27468;47.460;19.034;2024-01-10T12:33:51;101985.53;;;2.15;40.90
41800;BME280;27468;47.460;19.034;2024-01-10T12:36:17;102011.59;;;2.39;41.00
41800;BME280;27468;47.460;19.034;2024-01-10T12:38:43;102008.00;;;2.58;41.10
41800;BME280;27468;47.460;19.034;2024-01-10T12:41:11;102018.47;;;2.59;41.24
41800;BME280;27468;47.460;19.034;2024-01-10T12:43:37;101993.88;;;2.51;41.15
41800;BME280;27468;47.460;19.034;2024-01-10T12:46:10;102013.50;;;2.65;41.44
41800;BME280;27468;47.460;19.034;2024-01-10T12:48:37;101978.78;;;2.43;41.65
41800;BME280;27468;47.460;19.034;2024-01-10T12:51:04;101982.34;;;2.45;41.24
41800;BME280;27468;47.460;19.034;2024-01-10T12:53:43;101999.31;;;2.57;41.40